Flight Track Log - Related Links

Times and Time Zones

All times are in EDT time to prevent confusion due to time zone crossing. See the FLG3729 flight status page for this flight to view local times or setup timezone preferences in your user account.

Time Position Orientation Groundspeed Altitude Reporting Facility
EDT Latitude Longitude Course Direction KTS MPH feet Rate Location/Type
Thu 06:00:10 AM 42.7714 -73.8061 304° West 163 188 1,200  Level Boston Center
Thu 06:00:46 AM 42.7986 -73.8153 346° North 172 198 2,200 2,137 Climbing Boston Center
Thu 06:02:36 AM 42.8786 -73.9164 317° Northwest 214 246 6,400 2,188 Climbing Boston Center
Thu 06:03:00 AM 42.8268 -74.2875 281° West  Level FlightAware Approximate
Thu 06:03:36 AM 42.8919 -74.0072 281° West 261 300 8,400  Level Boston Center
Thu 06:04:00 AM 42.8465 -74.4122 283° West  Level FlightAware Approximate
Thu 06:04:36 AM 42.8944 -74.1178 272° West 261 300 10,500  Level Boston Center
Thu 06:05:00 AM 42.8680 -74.5361 304° West  Level FlightAware Approximate
Thu 06:05:36 AM 42.8969 -74.2286 272° West 300 345 11,400  Level Boston Center
Thu 06:06:36 AM 42.9008 -74.3703 272° West 336 387 13,000 1,450 Climbing Boston Center
Thu 06:07:36 AM 42.9031 -74.4867 272° West 345 397 14,300 1,350 Climbing Boston Center
Thu 06:08:36 AM 42.9067 -74.6314 272° West 345 397 15,700 1,250 Climbing Boston Center
Thu 06:09:36 AM 42.9103 -74.7589 272° West 359 413 16,800 1,100 Climbing Boston Center
Thu 06:10:36 AM 42.9136 -74.8981 272° West 364 419 17,900 955 Climbing Boston Center
Thu 06:11:48 AM 42.9167 -75.0400 272° West 369 425 18,900 955 Climbing Boston Center
Thu 06:12:48 AM 42.9192 -75.2075 271° West 369 425 20,000 900 Climbing Boston Center
Thu 06:13:48 AM 42.9217 -75.3522 271° West 374 430 20,700 550 Climbing Boston Center
Thu 06:14:48 AM 42.9242 -75.4969 271° West 384 442 21,100 500 Climbing Boston Center
Thu 06:15:48 AM 42.9264 -75.6472 271° West 384 442 21,700 550 Climbing Boston Center
Thu 06:16:48 AM 42.9303 -75.7978 272° West 389 448 22,200 511 Climbing Boston Center
Thu 06:18:44 AM 42.9319 -76.0994 271° West 392 451 23,200 511 Climbing Cleveland Center
Thu 06:19:44 AM 42.9336 -76.2525 271° West 397 457 23,700 496 Climbing Cleveland Center
Thu 06:20:45 AM 42.9350 -76.4083 271° West 407 468 24,200 500 Climbing Cleveland Center
Thu 06:21:44 AM 42.9342 -76.5617 270° West 407 468 24,700 504 Climbing Cleveland Center
Thu 06:22:44 AM 42.9353 -76.7147 271° West 407 468 25,200 500 Climbing Cleveland Center
Thu 06:23:44 AM 42.9358 -76.8539 270° West 407 468 25,700 450 Climbing Cleveland Center
Thu 06:24:44 AM 42.9303 -77.0072 267° West 407 468 26,100 450 Climbing Cleveland Center
Thu 06:25:44 AM 42.9244 -77.1608 267° West 407 468 26,600 550 Climbing Cleveland Center
Thu 06:26:44 AM 42.9189 -77.3311 268° West 407 468 27,200 550 Climbing Cleveland Center
Thu 06:27:44 AM 42.9106 -77.4847 266° West 407 468 27,700 400 Climbing Cleveland Center
Thu 06:28:44 AM 42.9061 -77.6353 268° West 407 468 28,000 150 Climbing Cleveland Center
Thu 06:29:44 AM 42.8975 -77.7944 266° West 407 468 28,000  Level Cleveland Center
Thu 06:30:44 AM 42.8889 -77.9506 266° West 407 468 28,000  Level Cleveland Center
Thu 06:31:44 AM 42.8819 -78.1097 267° West 412 474 28,000  Level Cleveland Center
Thu 06:32:44 AM 42.8747 -78.2686 267° West 422 486 28,000  Level Cleveland Center
Thu 06:33:44 AM 42.8653 -78.4303 265° West 427 491 28,000  Level Cleveland Center
Thu 06:34:44 AM 42.8578 -78.5892 266° West 427 491 28,000  Level Cleveland Center
Thu 06:35:44 AM 42.8500 -78.7539 266° West 432 497 28,000  Level Cleveland Center
Thu 06:36:44 AM 42.8378 -78.9128 264° West 427 491 28,000  Level Cleveland Center
Thu 06:37:44 AM 42.8297 -79.0772 266° West 427 491 28,000  Level Cleveland Center
Thu 06:38:44 AM 42.8192 -79.2417 265° West 427 491 28,000  Level Cleveland Center
Thu 06:39:44 AM 42.8128 -79.4031 267° West 433 498 28,000  Level Cleveland Center
Thu 06:40:44 AM 42.8017 -79.5617 265° West 433 498 28,000  Level Cleveland Center
Thu 06:41:45 AM 42.7925 -79.7203 266° West 433 498 28,000  Level Cleveland Center
Thu 06:42:44 AM 42.7811 -79.8844 265° West 433 498 28,000  Level Cleveland Center
Thu 06:43:44 AM 42.7675 -80.0431 263° West 428 493 28,000  Level Cleveland Center
Thu 06:44:44 AM 42.7556 -80.2072 264° West 428 493 28,000  Level Cleveland Center
Thu 06:45:44 AM 42.7456 -80.3628 265° West 420 483 28,000  Level Cleveland Center
Thu 06:46:44 AM 42.7333 -80.5267 264° West 437 503 28,000  Level Cleveland Center
Thu 06:47:44 AM 42.7206 -80.6850 264° West 443 510 28,000  Level Cleveland Center
Thu 06:48:44 AM 42.7078 -80.8489 264° West 443 510 28,000 -2,000 Level Cleveland Center
Thu 06:49:44 AM 42.6908 -81.0097 262° West 440 506 24,000 -1,550 Descending Cleveland Center
Thu 06:50:44 AM 42.6733 -81.1792 262° West 450 518 24,900 -347 Climbing Cleveland Center
Thu 06:51:45 AM 42.6556 -81.3425 262° West 450 518 23,300 -1,600 Descending Cleveland Center
Thu 06:52:44 AM 42.6358 -81.5033 261° West 445 512 21,700 -1,513 Descending Cleveland Center
Thu 06:53:44 AM 42.6178 -81.6469 260° West 431 496 20,300 -1,450 Descending Cleveland Center
Thu 06:54:44 AM 42.5975 -81.8017 260° West 426 490 18,800 -1,600 Descending Cleveland Center
Thu 06:55:44 AM 42.5792 -81.9536 261° West 426 490 17,100 -1,650 Descending Cleveland Center
Thu 06:56:44 AM 42.5606 -82.1081 261° West 426 490 15,500 -1,550 Descending Cleveland Center
Thu 06:57:44 AM 42.5419 -82.2542 260° West 414 476 14,000 -1,514 Descending Cleveland Center
Thu 06:58:35 AM 42.5272 -82.4003 262° West 400 460 12,700 -1,071 Descending Cleveland Center
Thu 06:59:36 AM 42.5083 -82.5378 259° West 322 371 12,000 -806 Descending Cleveland Center
Thu 07:00:49 AM 42.4664 -82.6661 246° West 300 345 10,900 -1,181 Descending Cleveland Center
Thu 07:01:43 AM 42.4333 -82.7550 243° Southwest 300 345 9,500 -1,252 Descending Cleveland Center
Thu 07:02:44 AM 42.4064 -82.8608 251° West 291 335 8,500 -1,140 Descending Cleveland Center
Thu 07:03:44 AM 42.3983 -82.9506 263° West 283 326 7,200 -694 Descending Cleveland Center
Thu 07:04:45 AM 42.4069 -83.0408 277° West 251 289 7,100 -149 Descending Cleveland Center
Thu 07:05:45 AM 42.4344 -83.1181 296° West 246 283 6,900 -850 Descending Cleveland Center
Thu 07:06:45 AM 42.4286 -83.1853 263° West 221 254 5,400 -1,350 Descending Cleveland Center
Thu 07:07:45 AM 42.3778 -83.2197 207° Southwest 170 196 4,200 -1,200 Descending Cleveland Center

Login

Don't have an account? Register now (free) for customized features, flight alerts, and more!